sensor_id;sensor_type;location;lat;lon;timestamp;pressure;altitude;pressure_sealevel;temperature;humidity
1926;BME280;964;42.606;23.588;2023-05-09T00:00:08;94771.56;;;31.45;30.60
1926;BME280;964;42.606;23.588;2023-05-09T00:02:36;94776.34;;;31.30;31.02
1926;BME280;964;42.606;23.588;2023-05-09T00:05:03;94772.22;;;31.75;30.30
1926;BME280;964;42.606;23.588;2023-05-09T00:07:30;94772.78;;;31.44;30.76
1926;BME280;964;42.606;23.588;2023-05-09T00:09:57;94769.28;;;31.58;30.25
1926;BME280;964;42.606;23.588;2023-05-09T00:12:24;94767.72;;;31.17;30.64
1926;BME280;964;42.606;23.588;2023-05-09T00:14:51;94770.03;;;31.04;31.16
1926;BME280;964;42.606;23.588;2023-05-09T00:17:22;94770.44;;;31.52;30.61
1926;BME280;964;42.606;23.588;2023-05-09T00:19:50;94771.03;;;31.82;29.91
1926;BME280;964;42.606;23.588;2023-05-09T00:22:17;94764.03;;;32.01;29.83
1926;BME280;964;42.606;23.588;2023-05-09T00:24:45;94764.84;;;32.07;29.99
1926;BME280;964;42.606;23.588;2023-05-09T00:27:12;94760.63;;;31.86;30.59
1926;BME280;964;42.606;23.588;2023-05-09T00:29:39;94766.66;;;31.90;30.00
1926;BME280;964;42.606;23.588;2023-05-09T00:32:06;94768.31;;;31.62;30.57
1926;BME280;964;42.606;23.588;2023-05-09T00:34:35;94769.28;;;31.58;30.40
1926;BME280;964;42.606;23.588;2023-05-09T00:37:01;94768.59;;;31.64;30.11
1926;BME280;964;42.606;23.588;2023-05-09T00:39:28;94761.50;;;31.97;29.75
1926;BME280;964;42.606;23.588;2023-05-09T00:41:55;94765.50;;;31.01;31.36
1926;BME280;964;42.606;23.588;2023-05-09T00:44:22;94767.97;;;31.54;30.29
1926;BME280;964;42.606;23.588;2023-05-09T00:46:49;94764.88;;;31.87;29.88
1926;BME280;964;42.606;23.588;2023-05-09T00:49:16;94767.50;;;31.76;30.39
1926;BME280;964;42.606;23.588;2023-05-09T00:51:44;94767.50;;;31.76;30.60
1926;BME280;964;42.606;23.588;2023-05-09T00:54:12;94762.25;;;31.17;31.16
1926;BME280;964;42.606;23.588;2023-05-09T00:56:39;94765.25;;;31.19;31.04
1926;BME280;964;42.606;23.588;2023-05-09T00:59:06;94764.31;;;31.22;31.14
1926;BME280;964;42.606;23.588;2023-05-09T01:01:33;94763.66;;;31.47;31.03
1926;BME280;964;42.606;23.588;2023-05-09T01:04:00;94762.25;;;31.17;31.12
1926;BME280;964;42.606;23.588;2023-05-09T01:06:36;94763.59;;;31.07;31.36
1926;BME280;964;42.606;23.588;2023-05-09T01:09:15;94764.22;;;31.37;30.53
1926;BME280;964;42.606;23.588;2023-05-09T01:11:50;94771.31;;;30.44;32.14
1926;BME280;964;42.606;23.588;2023-05-09T01:14:23;94766.34;;;31.07;31.40
1926;BME280;964;42.606;23.588;2023-05-09T01:16:59;94766.75;;;31.20;31.48
1926;BME280;964;42.606;23.588;2023-05-09T01:19:45;94760.75;;;31.36;31.05
1926;BME280;964;42.606;23.588;2023-05-09T01:22:17;94774.41;;;30.37;32.22
1926;BME280;964;42.606;23.588;2023-05-09T01:25:05;94772.13;;;30.80;31.63
1926;BME280;964;42.606;23.588;2023-05-09T01:27:41;94770.22;;;30.86;31.60
1926;BME280;964;42.606;23.588;2023-05-09T01:30:15;94768.97;;;31.36;30.53
1926;BME280;964;42.606;23.588;2023-05-09T01:32:45;94767.13;;;31.48;30.13
1926;BME280;964;42.606;23.588;2023-05-09T01:35:16;94768.50;;;31.78;30.34
1926;BME280;964;42.606;23.588;2023-05-09T01:37:46;94756.78;;;31.98;30.13
1926;BME280;964;42.606;23.588;2023-05-09T01:40:16;94770.47;;;31.98;29.72
1926;BME280;964;42.606;23.588;2023-05-09T01:42:48;94764.44;;;32.14;29.51
1926;BME280;964;42.606;23.588;2023-05-09T01:45:19;94769.91;;;32.14;29.43
1926;BME280;964;42.606;23.588;2023-05-09T01:47:48;94770.34;;;32.07;29.24
1926;BME280;964;42.606;23.588;2023-05-09T01:50:17;94781.13;;;31.70;29.88
1926;BME280;964;42.606;23.588;2023-05-09T01:52:46;94778.97;;;32.20;29.26
1926;BME280;964;42.606;23.588;2023-05-09T01:55:14;94783.16;;;32.16;29.16
1926;BME280;964;42.606;23.588;2023-05-09T01:57:43;94777.56;;;32.30;29.36
1926;BME280;964;42.606;23.588;2023-05-09T02:00:12;94785.91;;;31.75;29.82
1926;BME280;964;42.606;23.588;2023-05-09T02:02:41;94776.47;;;32.22;28.85
1926;BME280;964;42.606;23.588;2023-05-09T02:05:09;94789.41;;;31.76;29.37
1926;BME280;964;42.606;23.588;2023-05-09T02:07:38;94786.09;;;31.51;30.02
1926;BME280;964;42.606;23.588;2023-05-09T02:10:08;94789.97;;;31.80;29.76
1926;BME280;964;42.606;23.588;2023-05-09T02:12:35;94795.03;;;31.87;29.25
1926;BME280;964;42.606;23.588;2023-05-09T02:15:03;94795.31;;;31.69;29.49
1926;BME280;964;42.606;23.588;2023-05-09T02:17:30;94783.56;;;31.48;30.08
1926;BME280;964;42.606;23.588;2023-05-09T02:19:58;94776.94;;;31.75;29.92
1926;BME280;964;42.606;23.588;2023-05-09T02:22:25;94780.78;;;31.63;29.31
1926;BME280;964;42.606;23.588;2023-05-09T02:24:53;94784.97;;;31.23;29.78
1926;BME280;964;42.606;23.588;2023-05-09T02:27:20;94785.34;;;30.37;31.45
1926;BME280;964;42.606;23.588;2023-05-09T02:29:50;94794.16;;;31.20;30.35
1926;BME280;964;42.606;23.588;2023-05-09T02:32:23;94787.72;;;30.74;31.09
1926;BME280;964;42.606;23.588;2023-05-09T02:34:53;94785.59;;;30.98;30.66
1926;BME280;964;42.606;23.588;2023-05-09T02:37:23;94781.31;;;31.11;31.08
1926;BME280;964;42.606;23.588;2023-05-09T02:39:51;94793.28;;;30.50;31.34
1926;BME280;964;42.606;23.588;2023-05-09T02:42:20;94782.19;;;29.77;32.55
1926;BME280;964;42.606;23.588;2023-05-09T02:44:49;94786.75;;;29.80;32.48
1926;BME280;964;42.606;23.588;2023-05-09T02:47:16;94783.44;;;30.14;32.00
1926;BME280;964;42.606;23.588;2023-05-09T02:49:43;94774.63;;;30.63;31.06
1926;BME280;964;42.606;23.588;2023-05-09T02:52:10;94779.88;;;30.37;31.55
1926;BME280;964;42.606;23.588;2023-05-09T02:54:38;94785.22;;;30.32;31.66
1926;BME280;964;42.606;23.588;2023-05-09T02:57:06;94789.84;;;30.26;31.91
1926;BME280;964;42.606;23.588;2023-05-09T02:59:32;94786.88;;;30.53;31.73
1926;BME280;964;42.606;23.588;2023-05-09T03:01:59;94779.13;;;30.66;31.68
1926;BME280;964;42.606;23.588;2023-05-09T03:04:26;94784.78;;;30.62;31.44
1926;BME280;964;42.606;23.588;2023-05-09T03:06:53;94786.00;;;30.32;32.13
1926;BME280;964;42.606;23.588;2023-05-09T03:09:20;94793.63;;;30.28;31.87
1926;BME280;964;42.606;23.588;2023-05-09T03:11:48;94804.59;;;29.90;32.46
1926;BME280;964;42.606;23.588;2023-05-09T03:14:15;94802.09;;;30.01;32.52
1926;BME280;964;42.606;23.588;2023-05-09T03:16:42;94801.28;;;29.86;32.76
1926;BME280;964;42.606;23.588;2023-05-09T03:19:09;94807.81;;;29.64;32.76
1926;BME280;964;42.606;23.588;2023-05-09T03:21:36;94808.34;;;30.16;32.47
1926;BME280;964;42.606;23.588;2023-05-09T03:24:04;94812.34;;;29.67;32.55
1926;BME280;964;42.606;23.588;2023-05-09T03:26:30;94826.00;;;29.67;32.75
1926;BME280;964;42.606;23.588;2023-05-09T03:29:01;94827.22;;;29.66;32.54
1926;BME280;964;42.606;23.588;2023-05-09T03:31:28;94835.75;;;28.94;32.96
1926;BME280;964;42.606;23.588;2023-05-09T03:33:55;94836.50;;;27.98;34.65
1926;BME280;964;42.606;23.588;2023-05-09T03:36:22;94837.72;;;28.15;34.11
1926;BME280;964;42.606;23.588;2023-05-09T03:38:49;94830.69;;;28.59;33.32
1926;BME280;964;42.606;23.588;2023-05-09T03:41:16;94835.09;;;29.08;32.76
1926;BME280;964;42.606;23.588;2023-05-09T03:43:43;94839.56;;;28.87;32.93
1926;BME280;964;42.606;23.588;2023-05-09T03:46:11;94840.34;;;28.88;33.16
1926;BME280;964;42.606;23.588;2023-05-09T03:48:38;94851.03;;;28.40;33.58
1926;BME280;964;42.606;23.588;2023-05-09T03:51:05;94843.56;;;27.59;34.60
1926;BME280;964;42.606;23.588;2023-05-09T03:53:32;94850.34;;;27.45;34.88
1926;BME280;964;42.606;23.588;2023-05-09T03:55:59;94838.28;;;28.46;33.61
1926;BME280;964;42.606;23.588;2023-05-09T03:58:25;94849.38;;;28.24;33.76
1926;BME280;964;42.606;23.588;2023-05-09T04:00:52;94837.88;;;28.90;33.24
1926;BME280;964;42.606;23.588;2023-05-09T04:03:20;94830.41;;;28.48;33.45
1926;BME280;964;42.606;23.588;2023-05-09T04:05:47;94837.06;;;28.47;33.42
1926;BME280;964;42.606;23.588;2023-05-09T04:08:14;94835.81;;;28.66;33.42
1926;BME280;964;42.606;23.588;2023-05-09T04:10:41;94839.91;;;28.80;33.23
1926;BME280;964;42.606;23.588;2023-05-09T04:13:08;94826.91;;;28.57;33.31
1926;BME280;964;42.606;23.588;2023-05-09T04:15:35;94840.00;;;28.95;32.93
1926;BME280;964;42.606;23.588;2023-05-09T04:18:02;94840.97;;;28.73;33.19
1926;BME280;964;42.606;23.588;2023-05-09T04:20:31;94831.91;;;29.42;32.46
1926;BME280;964;42.606;23.588;2023-05-09T04:22:58;94834.00;;;28.72;32.99
1926;BME280;964;42.606;23.588;2023-05-09T04:25:25;94837.50;;;29.72;31.74
1926;BME280;964;42.606;23.588;2023-05-09T04:27:51;94830.34;;;28.85;32.66
1926;BME280;964;42.606;23.588;2023-05-09T04:30:18;94839.63;;;29.11;32.67
1926;BME280;964;42.606;23.588;2023-05-09T04:32:45;94837.97;;;28.53;33.54
1926;BME280;964;42.606;23.588;2023-05-09T04:35:13;94835.81;;;28.66;33.38
1926;BME280;964;42.606;23.588;2023-05-09T04:37:41;94839.47;;;28.54;33.70
1926;BME280;964;42.606;23.588;2023-05-09T04:40:09;94830.06;;;28.73;33.12
1926;BME280;964;42.606;23.588;2023-05-09T04:42:36;94842.03;;;29.18;32.71
1926;BME280;964;42.606;23.588;2023-05-09T04:45:03;94846.81;;;28.30;33.97
1926;BME280;964;42.606;23.588;2023-05-09T04:47:31;94842.03;;;29.18;32.48
1926;BME280;964;42.606;23.588;2023-05-09T04:49:58;94847.63;;;28.82;32.99
1926;BME280;964;42.606;23.588;2023-05-09T04:52:25;94845.84;;;28.69;33.13
1926;BME280;964;42.606;23.588;2023-05-09T04:54:53;94840.44;;;29.59;31.93
1926;BME280;964;42.606;23.588;2023-05-09T04:57:20;94847.09;;;28.32;33.25
1926;BME280;964;42.606;23.588;2023-05-09T04:59:47;94846.72;;;28.76;32.61
1926;BME280;964;42.606;23.588;2023-05-09T05:02:15;94850.38;;;28.72;32.68
1926;BME280;964;42.606;23.588;2023-05-09T05:04:42;94850.69;;;29.49;31.60
1926;BME280;964;42.606;23.588;2023-05-09T05:07:08;94852.16;;;30.45;30.64
1926;BME280;964;42.606;23.588;2023-05-09T05:09:35;94858.28;;;29.45;31.32
1926;BME280;964;42.606;23.588;2023-05-09T05:12:04;94847.34;;;30.70;30.29
1926;BME280;964;42.606;23.588;2023-05-09T05:14:33;94852.78;;;29.54;31.11
1926;BME280;964;42.606;23.588;2023-05-09T05:17:00;94849.31;;;30.84;29.44
1926;BME280;964;42.606;23.588;2023-05-09T05:19:26;94852.88;;;30.60;30.06
1926;BME280;964;42.606;23.588;2023-05-09T05:21:53;94855.19;;;29.85;31.25
1926;BME280;964;42.606;23.588;2023-05-09T05:24:20;94859.91;;;29.52;31.53
1926;BME280;964;42.606;23.588;2023-05-09T05:26:47;94850.81;;;29.79;31.24
1926;BME280;964;42.606;23.588;2023-05-09T05:29:15;94851.25;;;28.79;32.27
1926;BME280;964;42.606;23.588;2023-05-09T05:31:42;94859.91;;;28.77;32.34
1926;BME280;964;42.606;23.588;2023-05-09T05:34:09;94866.03;;;29.70;31.11
1926;BME280;964;42.606;23.588;2023-05-09T05:36:36;94858.91;;;29.97;30.60
1926;BME280;964;42.606;23.588;2023-05-09T05:39:03;94863.03;;;29.68;30.78
1926;BME280;964;42.606;23.588;2023-05-09T05:41:30;94864.63;;;30.23;30.11
1926;BME280;964;42.606;23.588;2023-05-09T05:43:56;94866.53;;;29.93;30.50
1926;BME280;964;42.606;23.588;2023-05-09T05:46:25;94859.31;;;30.57;30.12
1926;BME280;964;42.606;23.588;2023-05-09T05:48:52;94858.16;;;30.79;29.26
1926;BME280;964;42.606;23.588;2023-05-09T05:51:18;94875.06;;;29.29;31.36
1926;BME280;964;42.606;23.588;2023-05-09T05:53:45;94874.16;;;29.32;31.32
1926;BME280;964;42.606;23.588;2023-05-09T05:56:12;94865.88;;;29.98;30.55
1926;BME280;964;42.606;23.588;2023-05-09T05:58:39;94857.25;;;31.11;29.18
1926;BME280;964;42.606;23.588;2023-05-09T06:01:06;94863.44;;;30.38;30.00
1926;BME280;964;42.606;23.588;2023-05-09T06:03:35;94852.50;;;30.67;29.52
1926;BME280;964;42.606;23.588;2023-05-09T06:06:02;94865.16;;;30.12;30.56
1926;BME280;964;42.606;23.588;2023-05-09T06:08:29;94866.59;;;30.22;30.14
1926;BME280;964;42.606;23.588;2023-05-09T06:10:56;94868.59;;;29.74;30.77
1926;BME280;964;42.606;23.588;2023-05-09T06:13:23;94861.41;;;30.62;29.94
1926;BME280;964;42.606;23.588;2023-05-09T06:15:50;94868.50;;;29.68;31.26
1926;BME280;964;42.606;23.588;2023-05-09T06:18:20;94873.88;;;29.87;30.67
1926;BME280;964;42.606;23.588;2023-05-09T06:20:48;94868.75;;;30.18;30.61
1926;BME280;964;42.606;23.588;2023-05-09T06:23:15;94869.41;;;30.13;30.36
1926;BME280;964;42.606;23.588;2023-05-09T06:25:46;94871.38;;;28.90;32.61
1926;BME280;964;42.606;23.588;2023-05-09T06:28:13;94873.56;;;29.28;31.28
1926;BME280;964;42.606;23.588;2023-05-09T06:30:40;94876.13;;;28.53;32.41
1926;BME280;964;42.606;23.588;2023-05-09T06:33:07;94867.63;;;28.88;32.38
1926;BME280;964;42.606;23.588;2023-05-09T06:35:34;94868.16;;;29.01;31.90
1926;BME280;964;42.606;23.588;2023-05-09T06:38:02;94869.50;;;28.09;33.02
1926;BME280;964;42.606;23.588;2023-05-09T06:40:29;94879.47;;;27.94;33.05
1926;BME280;964;42.606;23.588;2023-05-09T06:42:55;94880.66;;;27.84;33.81
1926;BME280;964;42.606;23.588;2023-05-09T06:45:22;94885.25;;;28.05;33.18
1926;BME280;964;42.606;23.588;2023-05-09T06:47:49;94873.59;;;28.41;32.83
1926;BME280;964;42.606;23.588;2023-05-09T06:50:16;94865.16;;;28.90;32.08
1926;BME280;964;42.606;23.588;2023-05-09T06:52:43;94874.94;;;28.27;32.88
1926;BME280;964;42.606;23.588;2023-05-09T06:55:11;94866.28;;;28.65;32.70
1926;BME280;964;42.606;23.588;2023-05-09T06:57:38;94865.34;;;28.86;31.97
1926;BME280;964;42.606;23.588;2023-05-09T07:00:06;94858.28;;;28.43;33.12
1926;BME280;964;42.606;23.588;2023-05-09T07:02:33;94865.56;;;28.10;32.83
1926;BME280;964;42.606;23.588;2023-05-09T07:05:00;94871.00;;;28.01;33.24
1926;BME280;964;42.606;23.588;2023-05-09T07:07:27;94856.63;;;29.06;32.06
1926;BME280;964;42.606;23.588;2023-05-09T07:09:54;94871.75;;;27.92;34.00
1926;BME280;964;42.606;23.588;2023-05-09T07:12:22;94865.88;;;28.30;33.29
1926;BME280;964;42.606;23.588;2023-05-09T07:14:49;94870.50;;;28.75;32.92
1926;BME280;964;42.606;23.588;2023-05-09T07:17:15;94868.75;;;29.14;32.07
1926;BME280;964;42.606;23.588;2023-05-09T07:19:42;94874.84;;;29.00;32.15
1926;BME280;964;42.606;23.588;2023-05-09T07:22:09;94864.25;;;28.93;32.77
1926;BME280;964;42.606;23.588;2023-05-09T07:24:37;94881.81;;;27.55;34.11
1926;BME280;964;42.606;23.588;2023-05-09T07:27:04;94875.19;;;27.65;34.49
1926;BME280;964;42.606;23.588;2023-05-09T07:29:32;94868.25;;;28.64;32.55
1926;BME280;964;42.606;23.588;2023-05-09T07:31:59;94874.38;;;28.23;33.10
1926;BME280;964;42.606;23.588;2023-05-09T07:34:26;94872.81;;;27.95;33.49
1926;BME280;964;42.606;23.588;2023-05-09T07:36:53;94865.84;;;28.03;33.54
1926;BME280;964;42.606;23.588;2023-05-09T07:39:20;94873.41;;;27.90;33.39
1926;BME280;964;42.606;23.588;2023-05-09T07:41:47;94865.34;;;28.86;32.35
1926;BME280;964;42.606;23.588;2023-05-09T07:44:14;94874.19;;;29.14;31.95
1926;BME280;964;42.606;23.588;2023-05-09T07:46:42;94874.97;;;28.18;32.82
1926;BME280;964;42.606;23.588;2023-05-09T07:49:09;94875.53;;;29.18;32.06
1926;BME280;964;42.606;23.588;2023-05-09T07:51:36;94879.94;;;28.01;33.13
1926;BME280;964;42.606;23.588;2023-05-09T07:54:02;94875.53;;;28.49;32.44
1926;BME280;964;42.606;23.588;2023-05-09T07:56:29;94873.88;;;29.87;31.17
1926;BME280;964;42.606;23.588;2023-05-09T07:58:56;94883.72;;;28.58;32.14
1926;BME280;964;42.606;23.588;2023-05-09T08:01:23;94871.28;;;28.57;32.07
1926;BME280;964;42.606;23.588;2023-05-09T08:03:51;94871.88;;;28.89;31.75
1926;BME280;964;42.606;23.588;2023-05-09T08:06:18;94875.84;;;30.25;29.87
1926;BME280;964;42.606;23.588;2023-05-09T08:08:45;94874.22;;;30.18;30.66
1926;BME280;964;42.606;23.588;2023-05-09T08:11:12;94873.66;;;30.14;30.66
1926;BME280;964;42.606;23.588;2023-05-09T08:13:39;94883.41;;;28.38;32.73
1926;BME280;964;42.606;23.588;2023-05-09T08:16:06;94882.50;;;28.59;32.75
1926;BME280;964;42.606;23.588;2023-05-09T08:18:33;94881.88;;;28.64;33.12
1926;BME280;964;42.606;23.588;2023-05-09T08:21:01;94879.13;;;28.92;32.20
1926;BME280;964;42.606;23.588;2023-05-09T08:23:28;94881.00;;;28.31;33.01
1926;BME280;964;42.606;23.588;2023-05-09T08:25:55;94881.31;;;28.24;33.24
1926;BME280;964;42.606;23.588;2023-05-09T08:28:23;94881.09;;;29.33;31.91
1926;BME280;964;42.606;23.588;2023-05-09T08:30:52;94887.88;;;27.50;34.32
1926;BME280;964;42.606;23.588;2023-05-09T08:33:20;94887.06;;;28.17;33.57
1926;BME280;964;42.606;23.588;2023-05-09T08:35:49;94884.63;;;28.73;32.60
1926;BME280;964;42.606;23.588;2023-05-09T08:38:18;94878.81;;;29.64;31.54
1926;BME280;964;42.606;23.588;2023-05-09T08:40:45;94868.47;;;30.84;30.13
1926;BME280;964;42.606;23.588;2023-05-09T08:43:14;94871.38;;;30.51;30.29
1926;BME280;964;42.606;23.588;2023-05-09T08:45:46;94883.81;;;29.42;31.76
1926;BME280;964;42.606;23.588;2023-05-09T08:48:14;94881.84;;;29.66;31.57
1926;BME280;964;42.606;23.588;2023-05-09T08:50:41;94878.13;;;29.13;32.17
1926;BME280;964;42.606;23.588;2023-05-09T08:53:09;94872.44;;;30.15;31.11
1926;BME280;964;42.606;23.588;2023-05-09T08:55:38;94874.44;;;29.91;31.24
1926;BME280;964;42.606;23.588;2023-05-09T08:58:05;94877.44;;;29.93;31.19
1926;BME280;964;42.606;23.588;2023-05-09T09:00:32;94876.13;;;29.88;31.58
1926;BME280;964;42.606;23.588;2023-05-09T09:03:00;94886.59;;;30.28;30.84
1926;BME280;964;42.606;23.588;2023-05-09T09:05:29;94878.47;;;29.72;31.79
1926;BME280;964;42.606;23.588;2023-05-09T09:07:57;94873.84;;;30.63;30.60
1926;BME280;964;42.606;23.588;2023-05-09T09:10:25;94872.38;;;30.39;31.40
1926;BME280;964;42.606;23.588;2023-05-09T09:12:57;94884.03;;;29.86;32.23
1926;BME280;964;42.606;23.588;2023-05-09T09:15:26;94876.25;;;29.94;32.30
1926;BME280;964;42.606;23.588;2023-05-09T09:17:54;94874.00;;;29.83;33.14
1926;BME280;964;42.606;23.588;2023-05-09T09:20:22;94875.88;;;29.44;33.68
1926;BME280;964;42.606;23.588;2023-05-09T09:22:54;94865.91;;;30.65;31.74
1926;BME280;964;42.606;23.588;2023-05-09T09:25:24;94877.00;;;30.33;32.36
1926;BME280;964;42.606;23.588;2023-05-09T09:27:51;94869.59;;;30.77;31.98
1926;BME280;964;42.606;23.588;2023-05-09T09:30:22;94879.63;;;30.27;33.09
1926;BME280;964;42.606;23.588;2023-05-09T09:32:49;94875.72;;;30.87;31.90
1926;BME280;964;42.606;23.588;2023-05-09T09:35:16;94876.97;;;30.71;32.29
1926;BME280;964;42.606;23.588;2023-05-09T09:37:44;94884.09;;;30.01;33.25
1926;BME280;964;42.606;23.588;2023-05-09T09:40:11;94878.75;;;30.59;32.37
1926;BME280;964;42.606;23.588;2023-05-09T09:42:42;94888.78;;;30.00;33.29
1926;BME280;964;42.606;23.588;2023-05-09T09:45:10;94878.84;;;30.12;33.35
1926;BME280;964;42.606;23.588;2023-05-09T09:47:40;94876.50;;;31.02;31.96
1926;BME280;964;42.606;23.588;2023-05-09T09:50:10;94880.41;;;30.42;32.77
1926;BME280;964;42.606;23.588;2023-05-09T09:52:42;94881.75;;;30.47;32.84
1926;BME280;964;42.606;23.588;2023-05-09T09:55:09;94873.66;;;30.82;32.26
1926;BME280;964;42.606;23.588;2023-05-09T09:57:37;94890.25;;;29.87;32.98
1926;BME280;964;42.606;23.588;2023-05-09T10:00:09;94887.66;;;29.59;33.35
1926;BME280;964;42.606;23.588;2023-05-09T10:02:48;94887.41;;;30.43;32.45
1926;BME280;964;42.606;23.588;2023-05-09T10:05:20;94901.63;;;29.29;33.27
1926;BME280;964;42.606;23.588;2023-05-09T10:07:50;94889.69;;;30.21;32.66
1926;BME280;964;42.606;23.588;2023-05-09T10:10:19;94890.00;;;29.99;32.78
1926;BME280;964;42.606;23.588;2023-05-09T10:12:46;94888.75;;;29.86;33.07
1926;BME280;964;42.606;23.588;2023-05-09T10:15:16;94884.44;;;29.94;33.22
1926;BME280;964;42.606;23.588;2023-05-09T10:17:47;94891.00;;;28.52;35.25
1926;BME280;964;42.606;23.588;2023-05-09T10:20:16;94886.06;;;28.93;34.56
1926;BME280;964;42.606;23.588;2023-05-09T10:22:44;94889.94;;;29.28;33.71
1926;BME280;964;42.606;23.588;2023-05-09T10:25:17;94882.78;;;30.11;33.09
1926;BME280;964;42.606;23.588;2023-05-09T10:27:46;94883.25;;;29.20;34.31
1926;BME280;964;42.606;23.588;2023-05-09T10:30:16;94873.69;;;29.81;32.50
1926;BME280;964;42.606;23.588;2023-05-09T10:32:52;94886.00;;;29.20;33.59
1926;BME280;964;42.606;23.588;2023-05-09T10:35:22;94875.44;;;29.69;33.00
1926;BME280;964;42.606;23.588;2023-05-09T10:37:51;94875.94;;;29.92;32.62
1926;BME280;964;42.606;23.588;2023-05-09T10:40:20;94880.31;;;29.65;32.73
1926;BME280;964;42.606;23.588;2023-05-09T10:42:47;94872.47;;;28.84;33.72
1926;BME280;964;42.606;23.588;2023-05-09T10:45:14;94880.16;;;29.03;33.54
1926;BME280;964;42.606;23.588;2023-05-09T10:47:42;94883.38;;;28.84;33.60
1926;BME280;964;42.606;23.588;2023-05-09T10:50:11;94881.84;;;30.14;32.02
1926;BME280;964;42.606;23.588;2023-05-09T10:53:04;94884.63;;;29.25;32.68
1926;BME280;964;42.606;23.588;2023-05-09T10:55:36;94883.22;;;29.38;32.62
1926;BME280;964;42.606;23.588;2023-05-09T10:58:17;94880.97;;;28.77;33.33
1926;BME280;964;42.606;23.588;2023-05-09T11:00:45;94893.38;;;27.77;34.26
1926;BME280;964;42.606;23.588;2023-05-09T11:03:12;94895.69;;;28.24;34.15
1926;BME280;964;42.606;23.588;2023-05-09T11:05:40;94908.81;;;27.81;34.51
1926;BME280;964;42.606;23.588;2023-05-09T11:08:22;94895.06;;;28.84;33.58
1926;BME280;964;42.606;23.588;2023-05-09T11:10:51;94898.91;;;27.16;35.66
1926;BME280;964;42.606;23.588;2023-05-09T11:13:18;94896.59;;;27.94;34.88
1926;BME280;964;42.606;23.588;2023-05-09T11:16:08;94890.09;;;28.73;33.63
1926;BME280;964;42.606;23.588;2023-05-09T11:18:48;94883.94;;;29.06;33.33
1926;BME280;964;42.606;23.588;2023-05-09T11:21:16;94889.66;;;29.08;33.48
1926;BME280;964;42.606;23.588;2023-05-09T11:23:45;94906.75;;;28.12;34.13
1926;BME280;964;42.606;23.588;2023-05-09T11:26:13;94897.03;;;28.65;33.64
1926;BME280;964;42.606;23.588;2023-05-09T11:28:41;94887.03;;;28.62;33.26
1926;BME280;964;42.606;23.588;2023-05-09T11:31:17;94889.50;;;28.24;34.16
1926;BME280;964;42.606;23.588;2023-05-09T11:33:47;94885.56;;;28.16;34.41
1926;BME280;964;42.606;23.588;2023-05-09T11:36:26;94892.66;;;28.50;34.18
1926;BME280;964;42.606;23.588;2023-05-09T11:39:02;94896.69;;;27.91;34.68
1926;BME280;964;42.606;23.588;2023-05-09T11:41:30;94881.91;;;28.46;33.82
1926;BME280;964;42.606;23.588;2023-05-09T11:43:56;94886.75;;;28.42;34.08
1926;BME280;964;42.606;23.588;2023-05-09T11:46:24;94896.75;;;27.11;36.11
1926;BME280;964;42.606;23.588;2023-05-09T11:48:52;94884.34;;;28.26;34.35
1926;BME280;964;42.606;23.588;2023-05-09T11:51:20;94892.28;;;27.66;35.10
1926;BME280;964;42.606;23.588;2023-05-09T11:53:49;94900.59;;;27.53;35.46
1926;BME280;964;42.606;23.588;2023-05-09T11:56:18;94891.19;;;27.14;36.36
1926;BME280;964;42.606;23.588;2023-05-09T11:58:49;94896.19;;;27.47;35.72
1926;BME280;964;42.606;23.588;2023-05-09T12:01:17;94893.91;;;27.54;35.44
1926;BME280;964;42.606;23.588;2023-05-09T12:03:44;94895.53;;;28.10;35.09
1926;BME280;964;42.606;23.588;2023-05-09T12:06:15;94900.50;;;27.35;36.67
1926;BME280;964;42.606;23.588;2023-05-09T12:08:45;94900.34;;;26.99;36.76
1926;BME280;964;42.606;23.588;2023-05-09T12:11:13;94893.53;;;27.34;36.02
1926;BME280;964;42.606;23.588;2023-05-09T12:13:44;94888.59;;;28.18;35.13
1926;BME280;964;42.606;23.588;2023-05-09T12:16:12;94886.06;;;27.65;35.48
1926;BME280;964;42.606;23.588;2023-05-09T12:18:43;94890.09;;;27.03;36.17
1926;BME280;964;42.606;23.588;2023-05-09T12:21:11;94888.66;;;27.60;35.74
1926;BME280;964;42.606;23.588;2023-05-09T12:23:37;94890.13;;;27.12;36.88
1926;BME280;964;42.606;23.588;2023-05-09T12:26:05;94890.06;;;27.83;36.10
1926;BME280;964;42.606;23.588;2023-05-09T12:28:33;94880.97;;;28.67;34.68
1926;BME280;964;42.606;23.588;2023-05-09T12:31:00;94876.94;;;29.14;33.91
1926;BME280;964;42.606;23.588;2023-05-09T12:33:27;94867.66;;;29.53;33.26
1926;BME280;964;42.606;23.588;2023-05-09T12:36:02;94871.63;;;27.38;35.73
1926;BME280;964;42.606;23.588;2023-05-09T12:38:30;94866.75;;;27.82;35.47
1926;BME280;964;42.606;23.588;2023-05-09T12:41:01;94871.91;;;26.91;36.65
1926;BME280;964;42.606;23.588;2023-05-09T12:43:33;94859.50;;;28.42;34.07
1926;BME280;964;42.606;23.588;2023-05-09T12:46:01;94865.50;;;27.55;35.40
1926;BME280;964;42.606;23.588;2023-05-09T12:48:29;94864.63;;;27.67;35.41
1926;BME280;964;42.606;23.588;2023-05-09T12:51:01;94864.94;;;28.06;34.75
1926;BME280;964;42.606;23.588;2023-05-09T12:53:28;94858.41;;;27.67;35.22
1926;BME280;964;42.606;23.588;2023-05-09T12:56:00;94865.06;;;27.66;35.50
1926;BME280;964;42.606;23.588;2023-05-09T12:58:28;94853.41;;;28.56;34.09
1926;BME280;964;42.606;23.588;2023-05-09T13:00:57;94853.13;;;29.14;33.12
1926;BME280;964;42.606;23.588;2023-05-09T13:03:25;94866.28;;;27.65;34.96
1926;BME280;964;42.606;23.588;2023-05-09T13:05:58;94861.84;;;27.58;35.11
1926;BME280;964;42.606;23.588;2023-05-09T13:08:25;94852.84;;;27.80;35.17
1926;BME280;964;42.606;23.588;2023-05-09T13:10:52;94849.53;;;28.99;33.38
1926;BME280;964;42.606;23.588;2023-05-09T13:13:19;94853.56;;;28.53;33.67
1926;BME280;964;42.606;23.588;2023-05-09T13:15:47;94854.66;;;27.83;34.99
1926;BME280;964;42.606;23.588;2023-05-09T13:18:15;94848.00;;;28.20;35.15
1926;BME280;964;42.606;23.588;2023-05-09T13:20:42;94843.59;;;29.66;33.17
1926;BME280;964;42.606;23.588;2023-05-09T13:23:09;94843.56;;;28.59;34.04
1926;BME280;964;42.606;23.588;2023-05-09T13:25:35;94841.88;;;29.21;33.52
1926;BME280;964;42.606;23.588;2023-05-09T13:28:02;94847.13;;;28.23;34.42